createdAt,value
2022-10-13T00:01:17.405Z,56.52
2022-10-13T00:03:47.383Z,53.33
2022-10-13T00:06:19.081Z,54.77
2022-10-13T00:08:47.469Z,56.54
2022-10-13T00:11:27.645Z,58.07
2022-10-13T00:13:59.340Z,65.93
2022-10-13T00:16:29.664Z,65.55
2022-10-13T00:18:58.138Z,56.20
2022-10-13T00:21:27.363Z,53.69
2022-10-13T00:23:55.984Z,54.57
2022-10-13T00:26:26.124Z,56.88
2022-10-13T00:28:56.007Z,58.33
2022-10-13T00:31:29.079Z,65.20
2022-10-13T00:34:01.629Z,64.56
2022-10-13T00:36:30.415Z,55.52
2022-10-13T00:38:59.165Z,53.18
2022-10-13T00:41:27.543Z,54.40
2022-10-13T00:44:02.044Z,56.18
2022-10-13T00:46:36.222Z,57.77
2022-10-13T00:49:12.698Z,59.25
2022-10-13T00:51:49.173Z,67.42
2022-10-13T00:54:24.807Z,66.61
2022-10-13T00:56:54.679Z,57.66
2022-10-13T00:59:29.160Z,54.34
2022-10-13T01:02:00.221Z,55.70
2022-10-13T01:04:37.324Z,57.69
2022-10-13T01:07:06.614Z,58.94
2022-10-13T01:09:42.484Z,65.66
2022-10-13T01:12:30.584Z,67.04
2022-10-13T01:15:07.066Z,58.16
2022-10-13T01:18:12.872Z,54.83
2022-10-13T01:21:00.895Z,55.55
2022-10-13T01:23:53.311Z,58.20
2022-10-13T01:26:34.507Z,67.01
2022-10-13T01:29:13.416Z,64.61
2022-10-13T01:32:22.344Z,55.30
2022-10-13T01:34:59.757Z,52.83
2022-10-13T01:37:48.585Z,54.34
2022-10-13T01:40:29.938Z,56.33
2022-10-13T01:43:22.456Z,58.62
2022-10-13T01:46:02.558Z,67.35
2022-10-13T01:48:32.309Z,64.97
2022-10-13T01:51:01.236Z,56.74
2022-10-13T01:53:30.053Z,54.09
2022-10-13T01:56:00.568Z,54.88
2022-10-13T01:58:33.972Z,56.55
2022-10-13T02:01:18.303Z,58.17
2022-10-13T02:04:25.056Z,66.86
2022-10-13T02:07:08.167Z,65.51
2022-10-13T02:09:52.463Z,55.66
2022-10-13T02:12:32.863Z,53.00
2022-10-13T02:15:01.904Z,55.03
2022-10-13T02:17:31.845Z,56.96
2022-10-13T02:19:59.848Z,58.40
2022-10-13T02:22:36.911Z,65.59
2022-10-13T02:25:05.452Z,65.25
2022-10-13T02:27:33.119Z,55.76
2022-10-13T02:30:01.181Z,53.06
2022-10-13T02:32:29.018Z,54.15
2022-10-13T02:34:57.008Z,55.85
2022-10-13T02:37:27.316Z,57.53
2022-10-13T02:39:54.998Z,58.70
2022-10-13T02:42:23.540Z,65.73
2022-10-13T02:44:51.407Z,65.90
2022-10-13T02:47:19.264Z,56.96
2022-10-13T02:49:46.933Z,53.84
2022-10-13T02:52:14.689Z,54.85
2022-10-13T02:54:42.405Z,56.18
2022-10-13T02:57:10.062Z,58.32
2022-10-13T02:59:37.734Z,64.65
2022-10-13T03:02:05.431Z,65.59
2022-10-13T03:04:33.320Z,57.86
2022-10-13T03:07:01.016Z,54.48
2022-10-13T03:09:28.925Z,55.60
2022-10-13T03:11:56.597Z,57.03
2022-10-13T03:14:24.463Z,58.35
2022-10-13T03:16:52.085Z,65.98
2022-10-13T03:19:19.958Z,65.27
2022-10-13T03:21:47.638Z,56.51
2022-10-13T03:24:15.453Z,53.49
2022-10-13T03:26:43.119Z,54.66
2022-10-13T03:29:15.978Z,56.21
2022-10-13T03:31:44.489Z,57.62
2022-10-13T03:34:15.177Z,63.79
2022-10-13T03:36:43.126Z,65.58
2022-10-13T03:39:10.959Z,56.77
2022-10-13T03:41:38.714Z,54.22
2022-10-13T03:44:07.714Z,55.13
2022-10-13T03:46:35.373Z,57.20
2022-10-13T03:49:03.155Z,58.28
2022-10-13T03:51:30.894Z,65.18
2022-10-13T03:53:58.669Z,65.27
2022-10-13T03:56:27.928Z,56.98
2022-10-13T03:58:59.830Z,53.87
2022-10-13T04:01:30.587Z,54.87
2022-10-13T04:04:02.438Z,56.60
2022-10-13T04:06:31.250Z,57.94
2022-10-13T04:08:59.182Z,64.64
2022-10-13T04:11:26.907Z,65.15
2022-10-13T04:13:57.140Z,56.72
2022-10-13T04:16:29.340Z,53.85
2022-10-13T04:19:05.077Z,54.84
2022-10-13T04:21:35.299Z,56.47
2022-10-13T04:24:04.467Z,57.85
2022-10-13T04:26:36.279Z,59.31
2022-10-13T04:29:06.376Z,66.10
2022-10-13T04:31:35.028Z,65.91
2022-10-13T04:34:03.131Z,56.26
2022-10-13T04:36:31.004Z,53.33
2022-10-13T04:38:58.869Z,54.04
2022-10-13T04:41:26.944Z,55.34
2022-10-13T04:43:55.317Z,56.73
2022-10-13T04:46:26.684Z,58.22
2022-10-13T04:48:55.784Z,65.37
2022-10-13T04:51:26.196Z,65.73
2022-10-13T04:54:01.185Z,55.51
2022-10-13T04:56:29.970Z,52.53
2022-10-13T04:58:57.679Z,53.91
2022-10-13T05:01:25.869Z,56.03
2022-10-13T05:03:56.899Z,57.46
2022-10-13T05:06:29.791Z,64.23
2022-10-13T05:08:58.365Z,64.93
2022-10-13T05:11:28.990Z,56.01
2022-10-13T05:13:57.707Z,53.63
2022-10-13T05:16:26.578Z,54.88
2022-10-13T05:18:55.451Z,56.96
2022-10-13T05:21:28.953Z,58.42
2022-10-13T05:23:57.995Z,66.19
2022-10-13T05:26:32.063Z,66.36
2022-10-13T05:29:02.800Z,56.82
2022-10-13T05:31:33.771Z,54.08
2022-10-13T05:34:02.330Z,55.70
2022-10-13T05:36:34.139Z,57.28
2022-10-13T05:39:07.858Z,64.37
2022-10-13T05:41:35.783Z,65.45
2022-10-13T05:44:08.111Z,57.40
2022-10-13T05:46:36.913Z,54.33
2022-10-13T05:49:04.747Z,56.01
2022-10-13T05:51:37.809Z,58.14
2022-10-13T05:54:33.571Z,65.18
2022-10-13T05:57:25.925Z,66.54
2022-10-13T06:00:01.989Z,66.64
2022-10-13T06:02:39.780Z,54.51
2022-10-13T06:05:15.842Z,51.69
2022-10-13T06:07:47.254Z,53.02
2022-10-13T06:10:15.989Z,54.97
2022-10-13T06:12:43.739Z,57.35
2022-10-13T06:15:11.571Z,59.16
2022-10-13T06:17:40.042Z,65.08
2022-10-13T06:20:10.352Z,66.85
2022-10-13T06:22:39.235Z,58.16
2022-10-13T06:25:08.111Z,54.57
2022-10-13T06:27:35.848Z,55.91
2022-10-13T06:30:04.565Z,57.63
2022-10-13T06:32:32.313Z,59.11
2022-10-13T06:35:00.000Z,65.73
2022-10-13T06:37:28.032Z,65.94
2022-10-13T06:39:55.777Z,57.39
2022-10-13T06:42:23.809Z,53.73
2022-10-13T06:44:51.730Z,54.87
2022-10-13T06:47:19.406Z,57.30
2022-10-13T06:49:47.074Z,59.82
2022-10-13T06:52:14.889Z,65.23
2022-10-13T06:54:42.673Z,65.94
2022-10-13T06:57:10.470Z,56.82
2022-10-13T06:59:38.301Z,54.08
2022-10-13T07:02:06.063Z,54.58
2022-10-13T07:04:33.879Z,57.05
2022-10-13T07:07:01.644Z,58.68
2022-10-13T07:09:29.497Z,60.19
2022-10-13T07:11:57.531Z,65.17
2022-10-13T07:14:25.519Z,64.41
2022-10-13T07:16:55.084Z,56.44
2022-10-13T07:19:22.783Z,54.34
2022-10-13T07:21:50.629Z,56.03
2022-10-13T07:24:18.371Z,57.25
2022-10-13T07:26:46.045Z,58.40
2022-10-13T07:29:14.002Z,59.75
2022-10-13T07:31:44.489Z,60.98
2022-10-13T07:34:13.190Z,65.08
2022-10-13T07:36:41.951Z,62.09
2022-10-13T07:39:10.252Z,54.81
2022-10-13T07:41:37.923Z,51.67
2022-10-13T07:44:05.713Z,53.47
2022-10-13T07:46:34.121Z,56.05
2022-10-13T07:49:01.854Z,55.54
2022-10-13T07:51:29.655Z,58.26
2022-10-13T07:53:57.738Z,58.94
2022-10-13T07:56:25.519Z,59.33
2022-10-13T07:58:53.236Z,60.18
2022-10-13T08:01:21.051Z,61.07
2022-10-13T08:03:50.531Z,60.98
2022-10-13T08:06:23.992Z,60.95
2022-10-13T08:08:51.846Z,60.59
2022-10-13T08:11:19.999Z,61.32
2022-10-13T08:13:56.023Z,61.05
2022-10-13T08:16:23.944Z,61.15
2022-10-13T08:18:51.751Z,60.48
2022-10-13T08:21:45.949Z,60.61
2022-10-13T08:24:17.027Z,60.63
2022-10-13T08:26:47.244Z,59.80
2022-10-13T08:29:24.192Z,59.78
2022-10-13T08:31:54.153Z,59.41
2022-10-13T08:34:24.285Z,59.51
2022-10-13T08:36:56.419Z,59.02
2022-10-13T08:39:25.541Z,58.12
2022-10-13T08:41:56.582Z,58.09
2022-10-13T08:47:27.922Z,58.19
2022-10-13T08:50:01.227Z,57.86
2022-10-13T08:52:48.453Z,57.95
2022-10-13T08:55:32.073Z,57.17
2022-10-13T08:58:01.843Z,56.88
2022-10-13T09:00:30.415Z,56.60
2022-10-13T09:03:22.647Z,56.33
2022-10-13T09:06:17.066Z,56.24
2022-10-13T09:08:59.063Z,55.75
2022-10-13T09:11:36.313Z,55.81
2022-10-13T09:14:09.849Z,55.11
2022-10-13T09:16:45.090Z,55.06
2022-10-13T09:19:36.649Z,54.78
2022-10-13T09:22:24.259Z,54.89
2022-10-13T09:25:07.369Z,55.40
2022-10-13T09:27:59.070Z,55.18
2022-10-13T09:30:47.277Z,54.96
2022-10-13T09:33:24.391Z,55.11
2022-10-13T09:36:02.486Z,54.99
2022-10-13T09:38:30.449Z,54.69
2022-10-13T09:41:04.901Z,53.72
2022-10-13T09:43:48.178Z,53.51
2022-10-13T09:46:50.461Z,53.31
2022-10-13T09:49:42.810Z,52.86
2022-10-13T09:52:13.376Z,52.07
2022-10-13T09:54:52.953Z,52.37
2022-10-13T09:57:45.990Z,51.60
2022-10-13T10:00:28.081Z,52.04
2022-10-13T10:03:05.739Z,52.19
2022-10-13T10:05:57.828Z,52.06
2022-10-13T10:09:03.682Z,52.06
2022-10-13T10:11:42.468Z,51.07
2022-10-13T10:14:24.132Z,50.87
2022-10-13T10:17:36.937Z,50.94
2022-10-13T10:20:25.696Z,51.32
2022-10-13T10:23:38.134Z,51.03
2022-10-13T10:26:19.376Z,50.86
2022-10-13T10:29:29.559Z,50.20
2022-10-13T10:32:27.734Z,50.54
2022-10-13T10:35:17.864Z,49.90
2022-10-13T10:38:27.036Z,50.06
2022-10-13T10:41:16.542Z,50.65
2022-10-13T10:43:59.933Z,50.30
2022-10-13T10:46:51.454Z,49.93
2022-10-13T10:49:29.402Z,49.88
2022-10-13T10:52:01.689Z,49.61
2022-10-13T10:54:54.383Z,48.34
2022-10-13T10:57:40.955Z,47.63
2022-10-13T11:00:21.189Z,48.57
2022-10-13T11:03:43.576Z,47.95
2022-10-13T11:06:17.233Z,47.86
2022-10-13T11:08:47.855Z,47.90
2022-10-13T11:11:28.626Z,47.77
2022-10-13T11:14:15.698Z,47.56
2022-10-13T11:17:06.893Z,47.74
2022-10-13T11:19:39.836Z,47.86
2022-10-13T11:22:07.507Z,47.67
2022-10-13T11:24:36.451Z,47.74
2022-10-13T11:27:24.439Z,47.68
2022-10-13T11:29:58.063Z,47.94
2022-10-13T11:32:25.997Z,47.88
2022-10-13T11:35:21.339Z,47.76
2022-10-13T11:38:07.402Z,47.64
2022-10-13T11:41:03.193Z,47.75
2022-10-13T11:44:02.860Z,48.17
2022-10-13T11:46:52.470Z,48.16
2022-10-13T11:49:45.776Z,47.89
2022-10-13T11:52:36.125Z,48.04
2022-10-13T11:55:18.009Z,48.26
2022-10-13T11:57:46.143Z,47.88
2022-10-13T12:00:18.513Z,47.72
2022-10-13T12:02:53.641Z,47.52
2022-10-13T12:05:27.001Z,47.42
2022-10-13T12:08:03.900Z,46.76
2022-10-13T12:10:35.925Z,46.92
2022-10-13T12:13:06.017Z,47.07
2022-10-13T12:15:44.541Z,46.32
2022-10-13T12:18:35.179Z,45.47
2022-10-13T12:21:25.113Z,45.37
2022-10-13T12:24:09.372Z,45.83
2022-10-13T12:26:37.780Z,46.20
2022-10-13T12:29:14.369Z,46.27
2022-10-13T12:31:49.645Z,46.68
2022-10-13T12:34:25.419Z,46.96
2022-10-13T12:37:04.608Z,47.04
2022-10-13T12:39:35.286Z,46.99
2022-10-13T12:42:06.902Z,46.95
2022-10-13T12:44:35.169Z,46.54
2022-10-13T12:47:05.096Z,46.48
2022-10-13T12:49:39.471Z,46.47
2022-10-13T12:52:16.250Z,46.66
2022-10-13T12:54:54.491Z,46.31
2022-10-13T12:57:38.117Z,46.17
2022-10-13T13:00:28.528Z,45.92
2022-10-13T13:03:04.414Z,46.13
2022-10-13T13:05:40.599Z,46.72
2022-10-13T13:08:29.947Z,46.80
2022-10-13T13:11:02.258Z,46.99
2022-10-13T13:13:31.093Z,46.99
2022-10-13T13:16:19.301Z,46.69
2022-10-13T13:18:51.608Z,46.90
2022-10-13T13:21:20.011Z,47.38
2022-10-13T13:23:52.863Z,47.84
2022-10-13T13:26:24.409Z,47.43
2022-10-13T13:28:55.883Z,47.68
2022-10-13T13:31:26.390Z,47.76
2022-10-13T13:33:54.264Z,48.08
2022-10-13T13:36:25.981Z,48.29
2022-10-13T13:38:54.953Z,48.16
2022-10-13T13:41:27.905Z,48.23
2022-10-13T13:43:55.774Z,48.49
2022-10-13T13:46:27.729Z,48.54
2022-10-13T13:48:55.514Z,48.33
2022-10-13T13:51:23.289Z,48.39
2022-10-13T13:53:51.033Z,48.68
2022-10-13T13:56:20.722Z,48.71
2022-10-13T13:58:48.797Z,48.67
2022-10-13T14:01:16.905Z,48.66
2022-10-13T14:03:45.459Z,48.78
2022-10-13T14:06:19.262Z,48.95
2022-10-13T14:08:47.246Z,49.02
2022-10-13T14:11:15.270Z,48.99
2022-10-13T14:13:43.139Z,49.07
2022-10-13T14:16:18.215Z,49.32
2022-10-13T14:18:46.494Z,49.36
2022-10-13T14:21:15.283Z,49.66
2022-10-13T14:23:47.124Z,49.82
2022-10-13T14:26:15.623Z,49.93
2022-10-13T14:28:45.098Z,49.99
2022-10-13T14:31:13.061Z,50.30
2022-10-13T14:33:41.516Z,50.31
2022-10-13T14:36:09.715Z,50.33
2022-10-13T14:38:37.360Z,50.63
2022-10-13T14:41:06.627Z,51.04
2022-10-13T14:43:34.418Z,51.38
2022-10-13T14:46:06.157Z,51.74
2022-10-13T14:48:36.906Z,52.15
2022-10-13T14:51:10.395Z,52.53
2022-10-13T14:54:25.234Z,52.76
2022-10-13T15:20:54.206Z,55.59
2022-10-13T15:22:54.693Z,55.82
2022-10-13T15:25:22.411Z,56.53
2022-10-13T15:27:50.259Z,56.63
2022-10-13T15:30:18.172Z,56.93
2022-10-13T15:32:50.456Z,57.10
2022-10-13T15:35:18.231Z,57.32
2022-10-13T15:37:46.066Z,57.37
2022-10-13T15:40:13.919Z,57.51
2022-10-13T15:42:41.658Z,57.74
2022-10-13T15:45:11.406Z,58.02
2022-10-13T15:47:39.672Z,58.07
2022-10-13T15:50:09.901Z,58.27
2022-10-13T15:52:42.763Z,58.38
2022-10-13T15:55:12.378Z,58.52
2022-10-13T15:57:40.342Z,58.81
2022-10-13T16:00:11.748Z,58.88
2022-10-13T16:02:44.183Z,59.05
2022-10-13T16:05:13.621Z,59.10
2022-10-13T16:07:45.511Z,59.35
2022-10-13T16:10:16.329Z,59.39
2022-10-13T16:12:49.474Z,59.59
2022-10-13T16:15:18.505Z,59.69
2022-10-13T16:17:47.029Z,59.90
2022-10-13T16:20:14.995Z,59.95
2022-10-13T16:22:42.792Z,60.01
2022-10-13T16:25:11.335Z,60.22
2022-10-13T16:27:43.864Z,60.23
2022-10-13T16:30:12.924Z,60.27
2022-10-13T16:32:41.331Z,60.46
2022-10-13T16:35:09.352Z,60.47
2022-10-13T16:37:37.120Z,60.59
2022-10-13T16:40:05.435Z,60.76
2022-10-13T16:42:33.130Z,60.87
2022-10-13T16:45:00.862Z,60.95
2022-10-13T16:47:29.582Z,61.04
2022-10-13T16:49:57.357Z,61.14
2022-10-13T16:52:25.287Z,61.23
2022-10-13T16:54:53.085Z,61.33
2022-10-13T16:57:21.184Z,61.39
2022-10-13T16:59:49.324Z,61.44
2022-10-13T17:02:17.040Z,61.60
2022-10-13T17:04:44.849Z,65.47
2022-10-13T17:07:12.990Z,69.91
2022-10-13T17:09:40.828Z,59.54
2022-10-13T17:12:09.181Z,53.64
2022-10-13T17:14:37.135Z,52.82
2022-10-13T17:17:05.178Z,53.40
2022-10-13T17:19:33.193Z,54.17
2022-10-13T17:22:01.742Z,55.03
2022-10-13T17:24:30.165Z,56.28
2022-10-13T17:26:58.050Z,56.75
2022-10-13T17:29:25.824Z,57.64
2022-10-13T17:31:54.043Z,58.02
2022-10-13T17:34:25.184Z,58.37
2022-10-13T17:36:53.089Z,58.80
2022-10-13T17:39:20.898Z,59.52
2022-10-13T17:41:49.039Z,59.75
2022-10-13T17:44:20.742Z,60.17
2022-10-13T17:46:50.119Z,60.22
2022-10-13T17:49:18.303Z,60.54
2022-10-13T17:51:46.801Z,60.77
2022-10-13T17:54:16.634Z,67.42
2022-10-13T17:56:47.454Z,71.71
2022-10-13T17:59:17.731Z,62.93
2022-10-13T18:01:47.040Z,55.83
2022-10-13T18:04:18.862Z,51.53
2022-10-13T18:06:47.047Z,51.77
2022-10-13T18:09:20.020Z,53.08
2022-10-13T18:11:53.005Z,54.23
2022-10-13T18:14:24.687Z,55.11
2022-10-13T18:16:55.058Z,55.96
2022-10-13T18:19:23.377Z,56.80
2022-10-13T18:21:53.375Z,57.45
2022-10-13T18:24:24.495Z,58.01
2022-10-13T18:26:52.351Z,58.64
2022-10-13T18:29:20.434Z,59.24
2022-10-13T18:31:48.456Z,59.77
2022-10-13T18:34:17.683Z,60.24
2022-10-13T18:36:55.103Z,66.92
2022-10-13T18:39:26.781Z,68.34
2022-10-13T18:41:57.379Z,57.94
2022-10-13T18:44:25.621Z,53.24
2022-10-13T18:46:56.590Z,53.53
2022-10-13T18:49:31.325Z,54.40
2022-10-13T18:52:01.813Z,55.35
2022-10-13T18:54:31.150Z,56.76
2022-10-13T18:56:59.459Z,57.60
2022-10-13T18:59:27.862Z,58.62
2022-10-13T19:01:56.029Z,59.24
2022-10-13T19:04:24.138Z,66.33
2022-10-13T19:06:52.142Z,67.74
2022-10-13T19:09:21.843Z,58.02
2022-10-13T19:11:50.363Z,53.25
2022-10-13T19:14:18.454Z,53.74
2022-10-13T19:16:46.641Z,55.11
2022-10-13T19:19:15.354Z,56.16
2022-10-13T19:21:44.085Z,57.19
2022-10-13T19:24:12.099Z,58.07
2022-10-13T19:26:40.274Z,58.99
2022-10-13T19:29:12.771Z,59.62
2022-10-13T19:31:42.919Z,67.74
2022-10-13T19:34:12.729Z,67.87
2022-10-13T19:36:44.715Z,57.33
2022-10-13T19:39:21.148Z,52.72
2022-10-13T19:41:52.990Z,53.12
2022-10-13T19:44:22.454Z,54.38
2022-10-13T19:46:52.634Z,56.11
2022-10-13T19:49:25.224Z,57.62
2022-10-13T19:51:54.114Z,59.07
2022-10-13T19:54:23.447Z,64.68
2022-10-13T19:56:52.173Z,65.74
2022-10-13T19:59:21.101Z,57.64
2022-10-13T20:01:49.227Z,52.90
2022-10-13T20:04:20.561Z,53.33
2022-10-13T20:06:51.526Z,54.54
2022-10-13T20:09:20.559Z,55.86
2022-10-13T20:11:51.155Z,57.75
2022-10-13T20:14:19.376Z,59.19
2022-10-13T20:16:48.591Z,65.75
2022-10-13T20:19:19.690Z,68.16
2022-10-13T20:21:48.424Z,57.89
2022-10-13T20:24:16.870Z,53.02
2022-10-13T20:26:44.839Z,53.68
2022-10-13T20:29:12.823Z,54.85
2022-10-13T20:31:41.714Z,56.00
2022-10-13T20:34:10.688Z,57.04
2022-10-13T20:36:39.438Z,57.95
2022-10-13T20:39:09.248Z,59.08
2022-10-13T20:41:37.182Z,67.21
2022-10-13T20:44:06.153Z,67.31
2022-10-13T20:46:34.186Z,57.21
2022-10-13T20:49:11.594Z,53.04
2022-10-13T20:51:43.204Z,53.74
2022-10-13T20:54:15.003Z,55.03
2022-10-13T20:56:43.589Z,56.26
2022-10-13T20:59:14.870Z,57.43
2022-10-13T21:01:43.063Z,58.51
2022-10-13T21:04:11.563Z,65.85
2022-10-13T21:06:41.928Z,67.67
2022-10-13T21:09:10.331Z,58.20
2022-10-13T21:11:39.765Z,53.86
2022-10-13T21:14:09.745Z,54.56
2022-10-13T21:16:40.135Z,55.92
2022-10-13T21:19:08.954Z,57.50
2022-10-13T21:21:37.881Z,59.03
2022-10-13T21:24:08.105Z,65.97
2022-10-13T21:26:37.226Z,68.31
2022-10-13T21:29:05.862Z,58.69
2022-10-13T21:31:33.658Z,54.20
2022-10-13T21:34:01.493Z,54.87
2022-10-13T21:36:32.821Z,56.76
2022-10-13T21:39:05.280Z,57.51
2022-10-13T21:41:33.520Z,59.14
2022-10-13T21:44:01.852Z,66.67
2022-10-13T21:46:33.843Z,67.14
2022-10-13T21:49:05.910Z,57.86
2022-10-13T21:51:38.565Z,54.10
2022-10-13T21:54:10.588Z,54.85
2022-10-13T21:56:40.345Z,56.07
2022-10-13T21:59:11.424Z,57.49
2022-10-13T22:01:39.240Z,58.58
2022-10-13T22:04:07.297Z,65.52
2022-10-13T22:06:35.011Z,66.99
2022-10-13T22:09:04.929Z,57.52
2022-10-13T22:11:36.589Z,53.87
2022-10-13T22:14:05.475Z,54.74
2022-10-13T22:16:44.909Z,56.31
2022-10-13T22:19:14.393Z,57.28
2022-10-13T22:21:48.908Z,59.26
2022-10-13T22:24:21.930Z,67.08
2022-10-13T22:26:50.394Z,67.45
2022-10-13T22:29:21.934Z,58.23
2022-10-13T22:31:55.154Z,54.15
2022-10-13T22:34:23.327Z,54.96
2022-10-13T22:36:51.122Z,56.54
2022-10-13T22:39:18.769Z,57.91
2022-10-13T22:41:46.601Z,65.51
2022-10-13T22:44:15.044Z,66.66
2022-10-13T22:46:43.022Z,56.41
2022-10-13T22:49:11.183Z,53.08
2022-10-13T22:51:38.964Z,53.75
2022-10-13T22:54:06.758Z,55.45
2022-10-13T22:56:35.664Z,56.69
2022-10-13T22:59:08.192Z,57.82
2022-10-13T23:01:36.617Z,59.16
2022-10-13T23:04:04.900Z,67.52
2022-10-13T23:06:34.828Z,66.87
2022-10-13T23:09:05.503Z,56.46
2022-10-13T23:11:34.238Z,53.34
2022-10-13T23:14:02.993Z,54.33
2022-10-13T23:16:31.836Z,55.67
2022-10-13T23:18:59.754Z,58.00
2022-10-13T23:21:30.019Z,65.52
2022-10-13T23:24:04.383Z,66.69
2022-10-13T23:26:34.266Z,56.48
2022-10-13T23:29:04.615Z,52.84
2022-10-13T23:31:32.621Z,53.44
2022-10-13T23:34:00.450Z,55.48
2022-10-13T23:36:32.662Z,56.71
2022-10-13T23:39:05.602Z,57.46
2022-10-13T23:41:35.790Z,65.77
2022-10-13T23:44:03.985Z,65.30
2022-10-13T23:46:31.865Z,56.66
2022-10-13T23:48:59.763Z,53.27
2022-10-13T23:51:27.676Z,53.73
2022-10-13T23:53:56.382Z,55.93
2022-10-13T23:56:24.897Z,57.11
2022-10-13T23:58:52.664Z,58.61
